Time;durP1;ratioP1;P1;durP2;ratioP2;P2;SDS_P1;SDS_P2;PMS_P1;PMS_P2;Temp;Humidity;BMP_temperature;BMP_pressure;BME280_temperature;BME280_humidity;BME280_pressure;Samples;Min_cycle;Max_cycle;Signal;HPM_P1;HPM_P2
2021/05/09 00:00:54;;;;;;;4.43;4.03;;;11.90;60.00;;;;;;5001461;28;20074;-72
2021/05/09 00:03:20;;;;;;;6.05;5.45;;;12.00;60.20;;;;;;4998379;28;20030;-76
2021/05/09 00:05:46;;;;;;;5.90;4.05;;;12.00;60.10;;;;;;5004598;28;20042;-77
2021/05/09 00:08:11;;;;;;;4.57;3.47;;;11.90;60.00;;;;;;4980029;28;20367;-77
2021/05/09 00:10:37;;;;;;;5.07;3.72;;;12.00;60.10;;;;;;4996467;28;20083;-73
2021/05/09 00:13:03;;;;;;;5.82;4.03;;;12.60;60.40;;;;;;5003292;28;20399;-73
2021/05/09 00:15:28;;;;;;;4.55;3.58;;;12.00;60.00;;;;;;5004950;28;20295;-75
2021/05/09 00:17:54;;;;;;;5.20;3.60;;;12.00;59.50;;;;;;4994539;28;20018;-77
2021/05/09 00:20:20;;;;;;;5.90;5.30;;;12.00;59.90;;;;;;4999136;28;20096;-76
2021/05/09 00:22:46;;;;;;;4.65;4.15;;;12.00;59.20;;;;;;4997386;28;20022;-75
2021/05/09 00:25:12;;;;;;;7.05;5.00;;;12.10;59.80;;;;;;4986654;28;20034;-73
2021/05/09 00:27:39;;;;;;;4.15;3.60;;;12.00;60.00;;;;;;4989560;28;20038;-72
2021/05/09 00:30:06;;;;;;;3.80;3.33;;;12.10;60.10;;;;;;4992681;28;20038;-73
2021/05/09 00:32:31;;;;;;;4.47;3.97;;;12.10;60.10;;;;;;4983134;28;20085;-74
2021/05/09 00:34:57;;;;;;;4.40;4.00;;;12.00;59.80;;;;;;4987533;28;20029;-75
2021/05/09 00:37:22;;;;;;;4.75;4.20;;;12.00;60.30;;;;;;4984709;28;20034;-74
2021/05/09 00:39:48;;;;;;;4.25;3.40;;;12.10;60.40;;;;;;4993635;28;20022;-74
2021/05/09 00:42:14;;;;;;;5.22;3.70;;;12.10;60.40;;;;;;4999919;28;20452;-74
2021/05/09 00:44:39;;;;;;;4.25;3.85;;;12.10;60.90;;;;;;4990529;28;20034;-74
2021/05/09 00:47:10;;;;;;;5.40;3.85;;;12.00;61.10;;;;;;4985868;28;20037;-75
2021/05/09 00:49:37;;;;;;;4.38;3.75;;;12.10;61.50;;;;;;4991848;28;20228;-75
2021/05/09 00:52:03;;;;;;;5.40;3.85;;;12.10;60.80;;;;;;4990639;28;20358;-74
2021/05/09 00:54:30;;;;;;;5.65;4.00;;;12.20;61.40;;;;;;4988430;28;20552;-73
2021/05/09 00:56:56;;;;;;;4.95;4.45;;;12.10;61.10;;;;;;4995724;28;20057;-73
2021/05/09 00:59:24;;;;;;;5.35;4.18;;;12.10;61.50;;;;;;4989199;28;20022;-74
2021/05/09 01:01:51;;;;;;;4.82;3.75;;;12.10;62.00;;;;;;4988302;28;20030;-73
2021/05/09 01:04:16;;;;;;;5.90;3.70;;;12.10;61.50;;;;;;4990911;28;20703;-73
2021/05/09 01:06:44;;;;;;;5.20;3.83;;;12.10;61.70;;;;;;4994673;28;20038;-73
2021/05/09 01:09:10;;;;;;;5.65;3.90;;;12.10;61.90;;;;;;4986924;28;20121;-73
2021/05/09 01:11:36;;;;;;;4.65;3.50;;;12.10;62.50;;;;;;4997197;28;20476;-73
2021/05/09 01:14:03;;;;;;;6.68;4.20;;;12.10;63.00;;;;;;4991034;28;20034;-74
2021/05/09 01:16:28;;;;;;;7.10;4.40;;;12.10;62.60;;;;;;4987539;28;20052;-74
2021/05/09 01:18:54;;;;;;;5.95;5.03;;;12.10;62.50;;;;;;4977317;28;20023;-74
2021/05/09 01:21:19;;;;;;;6.22;4.40;;;12.10;62.80;;;;;;4983034;28;20026;-74
2021/05/09 01:23:45;;;;;;;5.78;5.07;;;12.00;62.70;;;;;;4986059;28;20026;-74
2021/05/09 01:26:10;;;;;;;5.13;4.10;;;12.10;62.90;;;;;;4987260;28;20114;-73
2021/05/09 01:28:36;;;;;;;6.88;4.57;;;12.10;63.30;;;;;;4986615;28;20388;-73
2021/05/09 01:31:02;;;;;;;7.40;4.10;;;12.00;63.30;;;;;;4990937;28;20551;-73
2021/05/09 01:33:28;;;;;;;6.10;4.47;;;12.00;63.80;;;;;;4990836;28;20029;-74
2021/05/09 01:35:53;;;;;;;5.28;4.03;;;12.10;63.80;;;;;;4991785;28;20073;-73
2021/05/09 01:38:19;;;;;;;5.55;3.92;;;12.00;64.00;;;;;;4993003;28;20035;-74
2021/05/09 01:40:44;;;;;;;5.43;4.35;;;12.00;64.20;;;;;;4988911;28;20030;-74
2021/05/09 01:43:10;;;;;;;5.82;3.72;;;12.00;64.40;;;;;;4991642;28;20030;-73
2021/05/09 01:45:35;;;;;;;6.15;4.88;;;12.00;64.40;;;;;;4994388;28;20025;-73
2021/05/09 01:48:01;;;;;;;7.53;5.20;;;12.00;64.60;;;;;;4992547;28;20121;-73
2021/05/09 01:50:26;;;;;;;4.85;3.90;;;12.00;65.00;;;;;;4996054;28;20038;-73
2021/05/09 01:52:52;;;;;;;4.55;3.67;;;12.00;65.10;;;;;;4986475;28;20050;-75
2021/05/09 01:55:23;;;;;;;5.40;4.15;;;12.00;65.20;;;;;;4990770;28;20105;-74
2021/05/09 01:57:49;;;;;;;5.78;4.13;;;12.00;65.30;;;;;;4986246;28;20066;-73
2021/05/09 02:00:18;;;;;;;4.63;3.75;;;12.00;65.90;;;;;;4988800;28;20053;-74
2021/05/09 02:02:44;;;;;;;5.43;4.90;;;11.90;66.20;;;;;;4986167;28;20158;-73
2021/05/09 02:05:11;;;;;;;4.90;4.13;;;11.90;66.00;;;;;;4991736;28;20046;-73
2021/05/09 02:07:37;;;;;;;4.22;3.80;;;11.90;66.50;;;;;;4981701;28;21813;-73
2021/05/09 02:10:05;;;;;;;4.93;4.32;;;11.90;66.90;;;;;;4985970;28;20026;-73
2021/05/09 02:12:31;;;;;;;4.38;3.97;;;11.90;66.80;;;;;;4983849;28;20030;-73
2021/05/09 02:14:57;;;;;;;4.25;3.85;;;11.90;67.00;;;;;;4993143;28;20017;-74
2021/05/09 02:17:23;;;;;;;5.18;4.03;;;11.90;66.80;;;;;;4989260;28;20065;-74
2021/05/09 02:19:48;;;;;;;3.58;3.22;;;11.90;67.40;;;;;;4986704;28;20026;-74
2021/05/09 02:22:14;;;;;;;4.72;3.90;;;11.90;67.50;;;;;;4993673;28;20041;-73
2021/05/09 02:24:42;;;;;;;4.28;3.88;;;11.90;67.70;;;;;;4985925;28;20432;-74
2021/05/09 02:27:07;;;;;;;3.92;2.97;;;11.90;68.50;;;;;;4976031;28;20034;-75
2021/05/09 02:29:33;;;;;;;3.80;3.40;;;11.90;68.60;;;;;;4987944;28;20026;-72
2021/05/09 02:31:59;;;;;;;4.20;3.63;;;11.80;68.80;;;;;;4989095;28;20065;-74
2021/05/09 02:34:24;;;;;;;5.40;4.20;;;11.80;69.30;;;;;;4989443;28;20030;-74
2021/05/09 02:36:50;;;;;;;4.57;3.90;;;11.90;69.90;;;;;;4985588;28;20117;-74
2021/05/09 02:39:16;;;;;;;7.47;4.78;;;11.80;69.80;;;;;;4992110;28;20029;-73
2021/05/09 02:41:43;;;;;;;5.75;4.15;;;11.80;70.20;;;;;;4986217;28;20022;-73
2021/05/09 02:44:09;;;;;;;4.70;3.45;;;11.80;71.30;;;;;;4982783;28;20042;-74
2021/05/09 02:46:34;;;;;;;4.55;3.95;;;11.80;71.10;;;;;;4989519;28;20057;-74
2021/05/09 02:49:00;;;;;;;5.25;3.95;;;11.80;71.40;;;;;;4988764;28;20054;-74
2021/05/09 02:51:26;;;;;;;5.30;3.97;;;11.80;71.50;;;;;;4992612;28;20033;-74
2021/05/09 02:53:51;;;;;;;4.22;3.47;;;11.80;72.00;;;;;;4988801;28;20057;-74
2021/05/09 02:56:17;;;;;;;4.60;3.80;;;11.80;72.10;;;;;;4985736;28;20058;-73
2021/05/09 02:58:42;;;;;;;5.20;3.78;;;11.80;72.70;;;;;;4989562;28;20039;-72
2021/05/09 03:01:08;;;;;;;5.68;3.72;;;11.80;73.10;;;;;;4989230;28;20018;-73
2021/05/09 03:03:34;;;;;;;5.13;4.20;;;11.80;73.50;;;;;;4997313;28;20039;-74
2021/05/09 03:05:59;;;;;;;4.65;4.00;;;11.80;73.40;;;;;;4993567;28;20046;-75
2021/05/09 03:08:25;;;;;;;4.55;3.55;;;11.80;73.50;;;;;;4985650;28;20029;-74
2021/05/09 03:10:51;;;;;;;4.68;3.55;;;11.70;74.00;;;;;;4985787;28;20030;-72
2021/05/09 03:13:17;;;;;;;6.35;3.55;;;11.80;74.40;;;;;;4987197;28;20088;-74
2021/05/09 03:15:42;;;;;;;4.82;3.70;;;11.70;74.80;;;;;;4994887;28;20026;-74
2021/05/09 03:18:08;;;;;;;4.50;3.33;;;11.60;75.00;;;;;;4992751;28;20521;-72
2021/05/09 03:20:34;;;;;;;5.65;3.70;;;11.70;75.40;;;;;;4984278;28;20090;-73
2021/05/09 03:23:00;;;;;;;4.38;3.92;;;11.60;76.40;;;;;;4987402;28;20046;-73
2021/05/09 03:25:26;;;;;;;4.30;3.22;;;11.50;76.90;;;;;;4985927;28;20404;-74
2021/05/09 03:27:52;;;;;;;6.15;3.88;;;11.50;78.10;;;;;;4992949;28;20042;-74
2021/05/09 03:30:18;;;;;;;3.88;3.47;;;11.40;79.20;;;;;;4985348;28;20209;-74
2021/05/09 03:32:43;;;;;;;3.47;3.17;;;11.40;80.30;;;;;;4992158;28;20034;-74
2021/05/09 03:35:10;;;;;;;4.28;3.88;;;11.30;80.80;;;;;;4996242;28;20145;-73
2021/05/09 03:37:36;;;;;;;5.13;3.60;;;11.30;81.80;;;;;;5000230;28;20077;-74
2021/05/09 03:40:04;;;;;;;4.68;3.70;;;11.30;81.80;;;;;;4989871;28;20030;-74
2021/05/09 03:42:30;;;;;;;3.70;3.30;;;11.30;82.40;;;;;;4993573;28;20042;-73
2021/05/09 03:44:55;;;;;;;5.75;4.00;;;11.30;83.10;;;;;;4988772;28;20434;-74
2021/05/09 03:47:26;;;;;;;4.80;3.67;;;11.30;84.10;;;;;;4987888;28;20031;-74
2021/05/09 03:49:54;;;;;;;5.63;3.72;;;11.30;84.30;;;;;;4995014;28;20057;-74
2021/05/09 03:52:20;;;;;;;5.90;4.60;;;11.30;84.80;;;;;;4997206;28;20472;-74
2021/05/09 03:54:46;;;;;;;4.18;3.60;;;11.30;85.80;;;;;;4998932;28;20045;-74
2021/05/09 03:57:11;;;;;;;3.60;3.30;;;11.30;85.00;;;;;;4989884;28;20455;-73
2021/05/09 03:59:37;;;;;;;4.30;3.88;;;11.30;86.60;;;;;;4991071;28;20620;-73
2021/05/09 04:02:03;;;;;;;5.20;3.55;;;11.30;87.00;;;;;;4993974;28;20029;-73
2021/05/09 04:04:28;;;;;;;6.38;3.80;;;11.40;86.80;;;;;;4998164;28;20512;-73
2021/05/09 04:06:54;;;;;;;4.18;3.47;;;11.40;86.40;;;;;;4990404;28;20113;-74
2021/05/09 04:09:20;;;;;;;5.97;3.80;;;11.50;86.60;;;;;;4990617;28;20030;-73
2021/05/09 04:11:45;;;;;;;4.88;3.95;;;11.40;87.30;;;;;;4995280;28;20050;-74
2021/05/09 04:14:11;;;;;;;7.32;4.22;;;11.40;88.20;;;;;;4993748;28;20037;-73
2021/05/09 04:16:36;;;;;;;5.15;3.50;;;11.40;88.30;;;;;;4984975;28;20026;-73
2021/05/09 04:19:02;;;;;;;4.35;3.35;;;11.40;88.70;;;;;;4992283;28;20117;-73
2021/05/09 04:21:28;;;;;;;4.30;3.72;;;11.30;89.70;;;;;;4989418;28;20061;-74
2021/05/09 04:23:53;;;;;;;4.50;4.10;;;11.30;90.30;;;;;;4995161;28;20030;-74
2021/05/09 04:26:19;;;;;;;5.30;3.97;;;11.30;90.80;;;;;;4992916;28;20045;-74
2021/05/09 04:28:45;;;;;;;4.05;3.50;;;11.20;91.00;;;;;;4996242;28;20034;-73
2021/05/09 04:31:10;;;;;;;5.15;4.38;;;11.20;91.60;;;;;;4989657;28;20579;-75
2021/05/09 04:33:36;;;;;;;3.67;3.30;;;11.20;91.90;;;;;;5007066;28;20473;-73
2021/05/09 04:36:02;;;;;;;4.50;3.85;;;11.10;92.10;;;;;;4977928;28;20026;-73
2021/05/09 04:38:27;;;;;;;3.75;3.25;;;11.10;92.70;;;;;;4994219;28;20094;-74
2021/05/09 04:40:53;;;;;;;6.25;3.83;;;11.10;93.10;;;;;;4996032;28;20035;-76
2021/05/09 04:43:19;;;;;;;4.50;3.90;;;11.10;93.20;;;;;;4994000;28;20109;-74
2021/05/09 04:45:54;;;;;;;5.22;3.50;;;11.20;93.10;;;;;;4998029;28;20065;-74
2021/05/09 04:48:22;;;;;;;4.20;3.75;;;11.20;93.20;;;;;;4999035;28;20045;-74
2021/05/09 04:50:48;;;;;;;4.18;3.67;;;11.20;93.20;;;;;;4996294;28;20022;-74
2021/05/09 04:53:27;;;;;;;4.82;3.20;;;11.30;92.90;;;;;;4995035;28;20054;-74
2021/05/09 04:55:55;;;;;;;5.90;3.40;;;11.40;92.50;;;;;;4994861;28;20030;-73
2021/05/09 04:58:20;;;;;;;4.40;3.55;;;11.50;92.40;;;;;;4993259;28;20026;-75
2021/05/09 05:00:46;;;;;;;5.28;3.97;;;11.60;92.20;;;;;;4996386;28;20105;-74
2021/05/09 05:03:12;;;;;;;4.72;3.80;;;11.70;91.80;;;;;;4995244;28;20499;-74
2021/05/09 05:05:39;;;;;;;3.45;3.10;;;11.80;91.40;;;;;;5000176;28;20133;-74
2021/05/09 05:08:04;;;;;;;5.38;3.65;;;11.90;90.40;;;;;;4995792;28;20045;-75
2021/05/09 05:10:30;;;;;;;5.95;3.55;;;12.00;90.00;;;;;;4991062;28;20031;-74
2021/05/09 05:12:55;;;;;;;5.15;3.45;;;12.10;89.50;;;;;;4994412;28;20051;-74
2021/05/09 05:15:21;;;;;;;4.05;3.63;;;12.30;88.80;;;;;;4996220;28;20030;-76
2021/05/09 05:17:46;;;;;;;4.75;3.17;;;12.50;86.90;;;;;;4990809;28;20113;-74
2021/05/09 05:20:13;;;;;;;4.13;3.28;;;12.90;85.90;;;;;;4990996;28;20026;-75
2021/05/09 05:22:39;;;;;;;3.75;3.35;;;13.70;80.50;;;;;;4996425;28;20034;-74
2021/05/09 05:25:06;;;;;;;3.47;3.05;;;14.60;74.90;;;;;;4997832;28;20088;-74
2021/05/09 05:27:32;;;;;;;4.05;3.33;;;15.90;67.30;;;;;;4995522;28;20377;-75
2021/05/09 05:29:57;;;;;;;4.18;3.08;;;16.90;61.90;;;;;;4990972;28;20121;-73
2021/05/09 05:32:23;;;;;;;3.67;2.97;;;18.00;57.70;;;;;;4996109;28;20022;-75
2021/05/09 05:34:48;;;;;;;5.30;3.47;;;18.30;56.20;;;;;;4997795;28;20049;-75
2021/05/09 05:37:14;;;;;;;5.07;3.03;;;18.80;54.20;;;;;;4996654;28;20792;-75
2021/05/09 05:39:40;;;;;;;4.03;3.38;;;18.20;54.30;;;;;;4996723;28;20078;-75
2021/05/09 05:42:05;;;;;;;3.75;3.20;;;17.90;55.30;;;;;;5000301;28;20022;-75
2021/05/09 05:44:40;;;;;;;5.28;3.40;;;17.40;56.60;;;;;;4997211;28;20038;-74
2021/05/09 05:47:06;;;;;;;6.45;3.53;;;16.80;58.10;;;;;;4997535;28;20049;-74
2021/05/09 05:49:31;;;;;;;6.00;3.63;;;16.30;59.70;;;;;;5003210;28;20045;-74
2021/05/09 05:51:57;;;;;;;3.38;3.08;;;16.00;61.00;;;;;;4995528;28;20062;-74
2021/05/09 05:54:25;;;;;;;3.70;3.30;;;15.40;63.00;;;;;;4994550;28;20030;-73
2021/05/09 05:56:50;;;;;;;3.50;3.20;;;15.20;64.30;;;;;;4997449;28;20027;-73
2021/05/09 05:59:16;;;;;;;4.93;3.53;;;15.20;65.20;;;;;;4994563;28;20448;-74
2021/05/09 06:01:41;;;;;;;3.40;2.78;;;15.40;64.80;;;;;;4994877;28;20485;-74
2021/05/09 06:04:07;;;;;;;3.85;3.13;;;15.40;65.20;;;;;;5006369;28;20385;-73
2021/05/09 06:06:33;;;;;;;4.70;3.10;;;15.20;66.20;;;;;;4990767;28;20029;-73
2021/05/09 06:08:58;;;;;;;7.38;4.32;;;15.40;66.20;;;;;;4970701;28;20138;-74
2021/05/09 06:11:24;;;;;;;4.85;3.30;;;15.40;66.40;;;;;;4994491;28;20180;-73
2021/05/09 06:13:50;;;;;;;3.35;2.90;;;15.50;66.70;;;;;;4997036;28;20096;-73
2021/05/09 06:16:15;;;;;;;5.90;3.28;;;15.60;66.20;;;;;;4992344;28;20393;-74
2021/05/09 06:18:41;;;;;;;3.55;3.25;;;15.90;66.10;;;;;;4992577;28;20493;-74
2021/05/09 06:21:06;;;;;;;4.43;2.90;;;16.00;65.70;;;;;;4989950;28;20125;-73
2021/05/09 06:23:32;;;;;;;3.78;2.63;;;15.90;65.70;;;;;;4996010;28;20033;-74
2021/05/09 06:25:57;;;;;;;4.00;2.40;;;16.20;63.70;;;;;;4993553;28;20046;-73
2021/05/09 06:28:23;;;;;;;3.28;2.42;;;16.20;63.50;;;;;;4997622;28;20038;-75
2021/05/09 06:30:49;;;;;;;3.88;2.45;;;16.20;63.10;;;;;;4994352;28;20121;-76
2021/05/09 06:33:15;;;;;;;4.18;2.60;;;16.30;62.80;;;;;;4990330;28;20030;-74
2021/05/09 06:35:42;;;;;;;3.20;2.55;;;16.30;63.40;;;;;;5000662;28;20037;-73
2021/05/09 06:38:08;;;;;;;4.55;2.75;;;16.20;64.20;;;;;;4990623;28;20093;-73
2021/05/09 06:40:36;;;;;;;3.00;2.70;;;16.70;63.30;;;;;;4994344;28;20026;-73
2021/05/09 06:43:03;;;;;;;4.90;2.50;;;16.90;62.70;;;;;;4996967;28;20045;-73
2021/05/09 06:45:31;;;;;;;2.47;2.28;;;17.70;61.10;;;;;;4995967;28;20030;-73
2021/05/09 06:47:58;;;;;;;3.60;2.58;;;18.50;58.60;;;;;;4998016;28;20033;-74
2021/05/09 06:50:25;;;;;;;4.60;2.40;;;18.70;57.40;;;;;;5005175;28;20091;-75
2021/05/09 06:52:50;;;;;;;3.10;2.40;;;18.60;57.10;;;;;;5002201;28;20026;-74
2021/05/09 06:55:16;;;;;;;2.72;2.20;;;18.50;57.50;;;;;;5004232;28;20372;-75
2021/05/09 06:57:42;;;;;;;2.60;2.40;;;18.40;57.60;;;;;;4991467;28;20049;-72
2021/05/09 07:00:09;;;;;;;3.90;2.55;;;18.30;58.10;;;;;;4999204;28;20473;-75
2021/05/09 07:02:36;;;;;;;4.00;2.40;;;18.90;57.00;;;;;;4990845;28;20042;-76
2021/05/09 07:05:02;;;;;;;3.95;2.75;;;20.20;54.90;;;;;;4994897;28;20042;-77
2021/05/09 07:07:27;;;;;;;2.58;1.83;;;21.90;51.60;;;;;;4994500;28;20031;-72
2021/05/09 07:09:53;;;;;;;2.80;2.20;;;22.70;49.20;;;;;;4993700;28;20400;-75
2021/05/09 07:12:19;;;;;;;4.00;3.42;;;23.20;48.10;;;;;;4995720;28;20031;-78
2021/05/09 07:14:44;;;;;;;3.75;1.80;;;24.70;46.20;;;;;;4991635;28;20038;-79
2021/05/09 07:17:11;;;;;;;4.32;2.15;;;25.20;44.80;;;;;;5005020;28;20342;-79
2021/05/09 07:19:37;;;;;;;3.05;2.10;;;25.10;44.30;;;;;;5008230;28;20171;-80
2021/05/09 07:22:07;;;;;;;2.33;2.00;;;26.00;43.60;;;;;;4992951;28;20381;-75
2021/05/09 07:24:33;;;;;;;3.15;2.65;;;26.40;43.20;;;;;;4997785;28;20023;-75
2021/05/09 07:26:58;;;;;;;26.88;21.95;;;26.70;42.40;;;;;;4993272;28;20026;-75
2021/05/09 07:29:24;;;;;;;2.55;2.15;;;27.60;41.50;;;;;;4993915;28;20022;-75
2021/05/09 07:31:50;;;;;;;2.88;2.10;;;28.00;39.70;;;;;;4990482;28;20027;-75
2021/05/09 07:34:16;;;;;;;2.17;1.77;;;27.90;40.30;;;;;;4969260;28;20358;-75
2021/05/09 07:36:41;;;;;;;2.78;1.77;;;27.00;41.10;;;;;;4996738;28;20045;-75
2021/05/09 07:39:08;;;;;;;2.85;2.20;;;26.80;40.80;;;;;;4999442;28;20094;-76
2021/05/09 07:41:34;;;;;;;2.95;2.00;;;27.60;40.40;;;;;;5000122;28;20026;-78
2021/05/09 07:44:00;;;;;;;2.72;2.03;;;27.80;40.50;;;;;;4992045;28;20034;-77
2021/05/09 07:46:25;;;;;;;3.38;1.98;;;28.00;40.10;;;;;;5002116;28;20180;-78
2021/05/09 07:48:51;;;;;;;3.50;2.00;;;28.30;39.80;;;;;;4996068;28;20030;-77
2021/05/09 07:51:17;;;;;;;2.22;2.00;;;27.20;40.80;;;;;;5006587;28;20060;-76
2021/05/09 07:53:43;;;;;;;2.00;1.80;;;27.40;40.90;;;;;;4992909;28;20088;-77
2021/05/09 07:56:11;;;;;;;2.25;1.75;;;28.50;39.70;;;;;;4999058;28;20022;-79
2021/05/09 07:58:40;;;;;;;2.55;1.80;;;27.60;40.00;;;;;;4993454;28;20042;-77
2021/05/09 08:01:05;;;;;;;2.85;1.80;;;27.50;40.20;;;;;;5000065;28;20236;-76
2021/05/09 08:03:31;;;;;;;2.13;1.77;;;27.60;39.90;;;;;;4997612;28;21285;-77
2021/05/09 08:05:57;;;;;;;2.47;1.77;;;27.40;40.10;;;;;;4990637;28;20516;-77
2021/05/09 08:08:26;;;;;;;2.45;1.75;;;27.90;40.40;;;;;;5005712;28;20034;-79
2021/05/09 08:10:51;;;;;;;2.38;1.60;;;27.70;40.30;;;;;;4986629;28;20022;-78
2021/05/09 08:13:23;;;;;;;3.30;1.83;;;28.00;40.30;;;;;;5000010;28;20048;-78
2021/05/09 08:15:50;;;;;;;2.20;1.98;;;28.60;39.80;;;;;;4989959;28;20029;-79
2021/05/09 08:18:21;;;;;;;3.65;3.35;;;29.40;39.50;;;;;;5003867;28;20023;-76
2021/05/09 08:20:47;;;;;;;3.83;3.53;;;28.70;39.80;;;;;;4998885;28;20248;-76
2021/05/09 08:23:13;;;;;;;2.35;2.13;;;28.50;40.20;;;;;;4999533;28;20507;-77
2021/05/09 08:25:38;;;;;;;5.05;2.83;;;28.30;40.30;;;;;;5000722;28;20022;-75
2021/05/09 08:28:04;;;;;;;4.47;2.90;;;28.20;40.60;;;;;;5000349;28;20381;-80
2021/05/09 08:30:30;;;;;;;4.05;2.50;;;28.30;40.20;;;;;;5006423;28;20198;-79
2021/05/09 08:32:56;;;;;;;4.63;2.70;;;29.60;40.40;;;;;;5011350;28;20026;-82
2021/05/09 08:35:21;;;;;;;4.25;2.10;;;29.90;39.50;;;;;;4998621;28;20118;-80
2021/05/09 08:37:50;;;;;;;2.85;2.50;;;30.30;38.90;;;;;;4997394;28;20046;-83
2021/05/09 08:40:17;;;;;;;4.82;3.20;;;29.10;39.20;;;;;;4992268;28;20019;-80
2021/05/09 08:42:46;;;;;;;3.30;2.95;;;29.10;39.20;;;;;;5005359;28;20034;-75
2021/05/09 08:45:15;;;;;;;2.58;1.90;;;29.10;39.40;;;;;;4999762;28;20040;-78
2021/05/09 08:47:41;;;;;;;4.37;2.10;;;28.50;39.70;;;;;;4992092;28;20029;-74
2021/05/09 08:50:19;;;;;;;3.47;2.10;;;29.10;39.60;;;;;;4997075;28;20100;-74
2021/05/09 08:52:46;;;;;;;3.75;1.95;;;29.70;39.10;;;;;;5001951;28;20058;-76
2021/05/09 08:55:21;;;;;;;5.38;2.53;;;30.40;39.00;;;;;;4999869;28;20026;-77
2021/05/09 08:57:47;;;;;;;2.90;2.58;;;29.60;39.40;;;;;;4996602;28;20018;-74
2021/05/09 09:00:15;;;;;;;3.08;2.15;;;30.10;39.00;;;;;;4994517;28;20409;-73
2021/05/09 09:02:43;;;;;;;3.42;1.85;;;30.90;38.30;;;;;;4991872;28;20036;-73
2021/05/09 09:05:10;;;;;;;3.15;2.17;;;30.40;38.50;;;;;;5003938;28;20048;-74
2021/05/09 09:07:48;;;;;;;3.90;2.75;;;30.10;38.80;;;;;;4994391;28;20042;-74
2021/05/09 09:10:34;;;;;;;4.00;2.83;;;30.10;38.70;;;;;;4998632;28;20085;-76
2021/05/09 09:13:01;;;;;;;3.67;2.25;;;29.90;39.20;;;;;;4992150;28;20030;-77
2021/05/09 09:15:54;;;;;;;3.15;1.80;;;29.60;38.90;;;;;;5004652;28;20059;-76
2021/05/09 09:18:42;;;;;;;3.53;1.88;;;29.70;39.10;;;;;;5015076;28;20046;-79
2021/05/09 09:21:26;;;;;;;3.05;1.58;;;30.20;38.20;;;;;;5006788;28;20029;-77
2021/05/09 09:24:04;;;;;;;2.58;2.05;;;31.40;37.60;;;;;;4985196;28;20030;-75
2021/05/09 09:26:40;;;;;;;2.15;1.80;;;31.70;37.80;;;;;;5011701;28;20030;-76
2021/05/09 09:29:24;;;;;;;2.63;1.25;;;31.20;37.40;;;;;;5005888;28;20511;-75
2021/05/09 09:31:59;;;;;;;3.67;2.10;;;30.30;38.30;;;;;;5002732;28;20040;-78
2021/05/09 09:34:38;;;;;;;5.30;2.80;;;30.50;38.80;;;;;;5010242;28;20068;-75
2021/05/09 09:37:07;;;;;;;3.13;1.60;;;32.00;37.70;;;;;;4996666;28;20057;-73
2021/05/09 09:39:46;;;;;;;5.60;1.63;;;32.00;37.20;;;;;;5008402;28;20033;-77
2021/05/09 09:42:14;;;;;;;3.17;1.70;;;32.20;37.00;;;;;;5001387;28;20036;-76
2021/05/09 09:44:40;;;;;;;2.47;2.13;;;33.40;36.40;;;;;;5005352;28;20092;-77
2021/05/09 09:47:05;;;;;;;2.60;1.50;;;32.40;36.60;;;;;;4993975;28;20081;-75
2021/05/09 09:49:35;;;;;;;2.92;1.73;;;32.50;36.90;;;;;;4993845;28;20026;-76
2021/05/09 09:52:02;;;;;;;3.75;1.30;;;31.60;37.20;;;;;;4993436;28;20039;-78
2021/05/09 09:54:42;;;;;;;2.42;1.70;;;31.00;38.20;;;;;;5006897;28;20026;-76
2021/05/09 09:57:20;;;;;;;;;;;31.50;37.40;;;;;;4993277;28;20030;-74
2021/05/09 10:00:12;;;;;;;6.20;5.57;;;32.00;37.40;;;;;;4994714;28;19932;-77
2021/05/09 10:02:44;;;;;;;2.47;2.13;;;31.50;37.80;;;;;;4989696;28;20045;-74
2021/05/09 10:05:10;;;;;;;3.92;2.00;;;31.50;37.90;;;;;;4994882;28;20046;-74
2021/05/09 10:07:36;;;;;;;6.07;2.20;;;31.50;38.20;;;;;;4993421;28;20056;-74
2021/05/09 10:10:04;;;;;;;2.05;1.85;;;31.40;37.60;;;;;;4993024;28;20031;-74
2021/05/09 10:12:29;;;;;;;2.25;1.58;;;31.80;38.40;;;;;;5002418;28;20397;-75
2021/05/09 10:14:55;;;;;;;2.10;1.90;;;33.10;36.90;;;;;;4996682;28;20465;-77
2021/05/09 10:17:23;;;;;;;2.25;1.58;;;32.80;37.00;;;;;;4988680;28;20413;-77
2021/05/09 10:19:48;;;;;;;3.72;1.92;;;32.70;36.60;;;;;;4995007;28;20018;-76
2021/05/09 10:23:04;;;;;;;2.88;1.55;;;32.30;36.90;;;;;;4992972;28;20171;-76
2021/05/09 10:25:46;;;;;;;3.83;1.60;;;30.90;38.00;;;;;;4992697;28;20042;-77
2021/05/09 10:28:13;;;;;;;2.08;1.60;;;31.40;38.30;;;;;;4991707;28;20057;-76
2021/05/09 10:30:47;;;;;;;4.43;1.80;;;31.50;38.10;;;;;;4994938;28;20050;-75
2021/05/09 10:33:48;;;;;;;2.38;1.40;;;31.10;38.20;;;;;;4990353;28;20073;-76
2021/05/09 10:36:22;;;;;;;3.38;1.67;;;31.30;38.00;;;;;;4932954;29;20081;-77
2021/05/09 10:39:07;;;;;;;3.90;1.50;;;31.50;37.80;;;;;;4968789;28;20030;-75
2021/05/09 10:41:36;;;;;;;2.83;1.90;;;31.60;38.00;;;;;;5001944;28;20022;-76
2021/05/09 10:44:40;;;;;;;4.70;2.63;;;31.70;38.60;;;;;;4994957;28;20543;-76
2021/05/09 10:47:07;;;;;;;2.53;2.10;;;32.00;38.30;;;;;;4990627;28;20646;-77
2021/05/09 10:50:10;;;;;;;1.92;1.65;;;32.20;37.90;;;;;;4993538;28;20035;-76
2021/05/09 10:52:43;;;;;;;5.18;3.20;;;32.20;38.30;;;;;;4988498;28;20140;-77
2021/05/09 10:55:43;;;;;;;2.25;1.92;;;32.30;38.00;;;;;;4989714;28;20040;-76
2021/05/09 10:58:16;;;;;;;2.83;1.35;;;32.30;37.20;;;;;;4995238;28;20480;-75
2021/05/09 11:00:58;;;;;;;2.70;1.70;;;32.70;36.90;;;;;;4998347;28;20026;-76
2021/05/09 11:03:36;;;;;;;4.90;3.20;;;32.90;37.20;;;;;;4994794;28;20022;-78
2021/05/09 11:06:09;;;;;;;1.95;1.20;;;32.80;37.10;;;;;;4997630;28;20053;-76
2021/05/09 11:08:53;;;;;;;3.42;1.60;;;32.30;36.50;;;;;;4998240;28;20488;-77
2021/05/09 11:11:20;;;;;;;2.70;1.50;;;33.20;35.90;;;;;;4978820;28;20034;-77
2021/05/09 11:16:30;;;;;;;1.77;1.63;;;33.60;36.60;;;;;;4983865;28;20121;-76
2021/05/09 11:18:57;;;;;;;1.58;1.48;;;35.20;34.60;;;;;;4987797;28;20022;-76
2021/05/09 11:21:23;;;;;;;1.40;1.30;;;34.30;34.90;;;;;;4990763;28;20022;-76
2021/05/09 11:23:49;;;;;;;2.58;1.48;;;34.80;34.20;;;;;;4996436;28;20084;-77
2021/05/09 11:26:26;;;;;;;2.72;1.50;;;33.90;34.50;;;;;;4988353;28;20030;-77
2021/05/09 11:29:14;;;;;;;2.25;1.90;;;33.00;35.10;;;;;;4987236;28;20030;-76
2021/05/09 11:31:48;;;;;;;3.30;1.50;;;35.40;32.30;;;;;;4993266;28;20046;-78
2021/05/09 11:34:17;;;;;;;3.05;1.52;;;35.40;32.70;;;;;;4985814;28;20031;-77
2021/05/09 11:36:46;;;;;;;3.60;1.92;;;34.10;34.60;;;;;;4994571;28;20046;-76
2021/05/09 11:39:20;;;;;;;2.65;1.80;;;33.50;35.20;;;;;;4988450;28;20035;-77
2021/05/09 11:42:15;;;;;;;2.95;1.80;;;33.70;35.80;;;;;;4986372;28;20029;-76
2021/05/09 11:44:47;;;;;;;1.45;1.35;;;34.70;34.20;;;;;;4989207;28;20153;-76
2021/05/09 11:47:22;;;;;;;2.17;1.60;;;35.40;33.50;;;;;;4988582;28;20481;-77
2021/05/09 11:49:49;;;;;;;4.20;2.55;;;34.60;33.20;;;;;;4990114;28;20105;-76
2021/05/09 11:52:20;;;;;;;3.35;1.55;;;33.20;34.10;;;;;;4994525;28;20029;-78
2021/05/09 11:54:58;;;;;;;4.00;1.67;;;33.70;34.00;;;;;;4990877;28;20069;-76
2021/05/09 11:57:28;;;;;;;2.22;1.35;;;34.40;33.50;;;;;;4991974;28;20041;-75
2021/05/09 12:00:00;;;;;;;2.20;1.85;;;34.20;34.60;;;;;;4993194;28;20027;-77
2021/05/09 12:02:31;;;;;;;3.13;1.70;;;33.60;33.80;;;;;;4985809;28;20030;-77
2021/05/09 12:05:11;;;;;;;2.00;1.80;;;33.60;34.00;;;;;;4994845;28;20050;-76
2021/05/09 12:07:44;;;;;;;2.00;1.80;;;33.60;34.30;;;;;;4999542;28;20038;-76
2021/05/09 12:10:29;;;;;;;1.70;1.60;;;33.30;34.90;;;;;;5003616;28;20775;-75
2021/05/09 12:13:04;;;;;;;3.97;3.58;;;32.70;34.70;;;;;;4999332;28;20030;-76
2021/05/09 12:15:38;;;;;;;4.10;3.08;;;31.80;36.10;;;;;;5002790;28;20615;-78
2021/05/09 12:18:07;;;;;;;2.72;1.92;;;32.40;35.70;;;;;;4996251;28;20026;-77
2021/05/09 12:20:34;;;;;;;;;;;32.70;35.10;;;;;;5001859;28;20030;-76
2021/05/09 12:23:08;;;;;;;2.08;1.52;;;33.30;34.50;;;;;;5000299;28;20019;-78
2021/05/09 12:25:42;;;;;;;2.45;2.25;;;34.30;34.10;;;;;;4984276;28;20404;-76
2021/05/09 12:28:18;;;;;;;3.92;2.40;;;34.10;34.30;;;;;;5001521;28;20036;-77
2021/05/09 12:30:49;;;;;;;3.05;2.08;;;33.40;34.40;;;;;;4993668;28;20022;-76
2021/05/09 12:33:28;;;;;;;6.15;5.65;;;33.00;35.10;;;;;;5003025;28;20706;-77
2021/05/09 12:35:55;;;;;;;3.58;1.63;;;33.10;35.10;;;;;;4991542;28;20022;-76
2021/05/09 12:38:32;;;;;;;2.50;1.60;;;33.60;34.50;;;;;;4993286;28;20100;-76
2021/05/09 12:41:15;;;;;;;1.88;1.70;;;33.80;34.50;;;;;;4992765;28;20026;-76
2021/05/09 12:43:51;;;;;;;2.80;1.50;;;33.00;35.00;;;;;;4992102;28;20163;-76
2021/05/09 12:46:41;;;;;;;2.17;1.65;;;33.50;34.60;;;;;;4990899;28;20054;-76
2021/05/09 12:49:18;;;;;;;5.13;4.28;;;33.80;34.20;;;;;;4991483;28;20034;-76
2021/05/09 12:52:01;;;;;;;2.70;1.85;;;33.80;35.20;;;;;;4992398;28;20034;-76
2021/05/09 12:54:44;;;;;;;3.00;1.70;;;33.30;34.60;;;;;;4998162;28;20042;-75
2021/05/09 12:57:23;;;;;;;1.63;1.52;;;33.30;34.70;;;;;;4993565;28;20029;-75
2021/05/09 12:59:50;;;;;;;1.70;1.60;;;34.20;34.60;;;;;;4995946;28;20025;-76